Time,TemperatureF,DewpointF,PressureIn,WindDirection,WindDirectionDegrees,WindSpeedMPH,WindSpeedGustMPH,Humidity,HourlyPrecipIn,Conditions,Clouds,dailyrainin,SoftwareType,DateUTC
2014-08-21 00:00:00,74.7,68.8,29.93,SSW,213,0.0,0.0,82,0.00,,,0.00,Wunderground v.1.15,2014-08-21 05:00:00,
2014-08-21 00:05:00,74.7,68.8,29.93,SSW,213,0.0,0.0,82,0.00,,,0.00,Wunderground v.1.15,2014-08-21 05:05:00,
2014-08-21 00:15:00,74.6,68.4,29.93,SSW,213,0.0,0.0,81,0.00,,,0.00,Wunderground v.1.15,2014-08-21 05:15:00,
2014-08-21 00:20:00,74.6,68.4,29.93,SSW,213,0.0,0.0,81,0.00,,,0.00,Wunderground v.1.15,2014-08-21 05:20:00,
2014-08-21 00:25:00,74.6,68.4,29.93,SSW,213,0.0,0.0,81,0.00,,,0.00,Wunderground v.1.15,2014-08-21 05:25:00,
2014-08-21 00:30:00,74.5,68.3,29.93,SSW,213,0.0,0.0,81,0.00,,,0.00,Wunderground v.1.15,2014-08-21 05:30:00,
2014-08-21 00:35:00,74.5,68.3,29.93,SSW,213,0.0,0.0,81,0.00,,,0.00,Wunderground v.1.15,2014-08-21 05:35:00,
2014-08-21 00:40:00,74.4,68.2,29.93,SSW,213,0.0,0.0,81,0.00,,,0.00,Wunderground v.1.15,2014-08-21 05:40:00,
2014-08-21 00:45:00,74.4,68.2,29.93,SSW,213,0.0,0.0,81,0.00,,,0.00,Wunderground v.1.15,2014-08-21 05:45:00,
2014-08-21 00:50:00,74.3,68.1,29.93,SSW,213,0.0,0.0,81,0.00,,,0.00,Wunderground v.1.15,2014-08-21 05:50:00,
2014-08-21 00:55:00,74.3,68.1,29.94,SSW,213,0.0,0.0,81,0.00,,,0.00,Wunderground v.1.15,2014-08-21 05:55:00,
2014-08-21 01:00:00,74.3,68.1,29.94,SSW,213,0.0,0.0,81,0.00,,,0.00,Wunderground v.1.15,2014-08-21 06:00:00,
2014-08-21 01:05:00,74.3,68.4,29.94,SSW,213,0.0,0.0,82,0.00,,,0.00,Wunderground v.1.15,2014-08-21 06:05:00,
2014-08-21 01:15:00,74.2,68.3,29.94,SSW,213,0.0,0.0,82,0.00,,,0.00,Wunderground v.1.15,2014-08-21 06:15:00,
2014-08-21 01:25:00,74.0,68.5,29.94,SSW,213,0.0,0.0,83,0.00,,,0.00,Wunderground v.1.15,2014-08-21 06:25:00,
2014-08-21 01:30:00,73.9,68.4,29.94,SSW,211,1.0,1.0,83,0.00,,,0.01,Wunderground v.1.15,2014-08-21 06:30:00,
2014-08-21 01:35:00,73.7,68.6,29.94,SSW,206,1.0,1.0,84,0.13,,,0.02,Wunderground v.1.15,2014-08-21 06:35:00,
2014-08-21 01:40:00,73.3,68.9,29.93,SSW,206,0.0,0.0,86,0.06,,,0.02,Wunderground v.1.15,2014-08-21 06:40:00,
2014-08-21 01:45:00,73.1,68.7,29.93,SSW,206,0.0,0.0,86,0.04,,,0.02,Wunderground v.1.15,2014-08-21 06:45:00,
2014-08-21 01:55:00,72.7,68.6,29.93,SSW,206,0.0,0.0,87,0.00,,,0.02,Wunderground v.1.15,2014-08-21 06:55:00,
2014-08-21 02:00:00,72.6,68.8,29.93,SSW,206,0.0,0.0,88,0.00,,,0.02,Wunderground v.1.15,2014-08-21 07:00:00,
2014-08-21 02:05:00,72.4,68.6,29.93,SSW,206,0.0,0.0,88,0.00,,,0.02,Wunderground v.1.15,2014-08-21 07:05:00,
2014-08-21 02:15:00,72.1,68.7,29.93,SSW,206,0.0,0.0,89,0.00,,,0.02,Wunderground v.1.15,2014-08-21 07:15:00,
2014-08-21 02:20:00,71.8,68.4,29.93,SSW,206,1.0,1.0,89,0.00,,,0.02,Wunderground v.1.15,2014-08-21 07:20:00,
2014-08-21 02:25:00,71.6,68.2,29.94,SSW,206,0.0,1.0,89,0.00,,,0.02,Wunderground v.1.15,2014-08-21 07:25:00,
2014-08-21 02:30:00,71.5,68.1,29.93,SSW,206,0.0,0.0,89,0.00,,,0.02,Wunderground v.1.15,2014-08-21 07:30:00,
2014-08-21 02:40:00,71.6,68.5,29.94,SSW,209,0.0,0.0,90,0.64,,,0.06,Wunderground v.1.15,2014-08-21 07:40:00,
2014-08-21 02:45:00,71.6,68.5,29.94,SSW,209,0.0,0.0,90,0.15,,,0.07,Wunderground v.1.15,2014-08-21 07:45:00,
2014-08-21 02:50:00,71.5,68.7,29.94,SSW,209,0.0,0.0,91,0.07,,,0.07,Wunderground v.1.15,2014-08-21 07:50:00,
2014-08-21 02:55:00,71.5,68.7,29.93,SSW,209,0.0,0.0,91,0.04,,,0.07,Wunderground v.1.15,2014-08-21 07:55:00,
2014-08-21 03:00:00,71.3,68.5,29.93,SSW,209,0.0,0.0,91,0.00,,,0.07,Wunderground v.1.15,2014-08-21 08:00:00,
2014-08-21 03:05:00,71.4,69.0,29.93,SSW,209,0.0,0.0,92,0.00,,,0.07,Wunderground v.1.15,2014-08-21 08:05:00,
2014-08-21 03:15:00,71.5,69.1,29.92,SSW,209,0.0,0.0,92,0.00,,,0.07,Wunderground v.1.15,2014-08-21 08:15:00,
2014-08-21 03:20:00,71.4,69.0,29.92,SSW,211,1.0,1.0,92,0.00,,,0.07,Wunderground v.1.15,2014-08-21 08:20:00,
2014-08-21 03:25:00,71.3,69.2,29.92,SSW,211,0.0,1.0,93,0.00,,,0.07,Wunderground v.1.15,2014-08-21 08:25:00,
2014-08-21 03:30:00,71.3,69.2,29.92,SSW,211,0.0,0.0,93,0.00,,,0.07,Wunderground v.1.15,2014-08-21 08:30:00,
2014-08-21 03:35:00,71.3,69.2,29.92,SSW,211,0.0,0.0,93,0.00,,,0.07,Wunderground v.1.15,2014-08-21 08:35:00,
2014-08-21 03:45:00,71.3,69.2,29.92,SSW,211,0.0,0.0,93,0.00,,,0.07,Wunderground v.1.15,2014-08-21 08:45:00,
2014-08-21 03:50:00,71.3,69.2,29.91,SSW,211,0.0,0.0,93,0.00,,,0.07,Wunderground v.1.15,2014-08-21 08:50:00,
2014-08-21 03:55:00,71.3,69.2,29.92,SSW,211,0.0,0.0,93,0.00,,,0.07,Wunderground v.1.15,2014-08-21 08:55:00,
2014-08-21 04:00:00,71.3,69.2,29.91,SSW,211,0.0,0.0,93,0.00,,,0.07,Wunderground v.1.15,2014-08-21 09:00:00,
2014-08-21 04:05:00,71.2,69.1,29.91,SSW,211,0.0,0.0,93,0.00,,,0.07,Wunderground v.1.15,2014-08-21 09:05:00,
2014-08-21 04:15:00,71.3,69.5,29.93,SSW,211,0.0,0.0,94,0.00,,,0.07,Wunderground v.1.15,2014-08-21 09:15:00,
2014-08-21 04:20:00,71.3,69.5,29.92,SSW,211,0.0,0.0,94,0.00,,,0.07,Wunderground v.1.15,2014-08-21 09:20:00,
2014-08-21 04:30:00,71.4,69.6,29.93,SSW,211,1.0,1.0,94,0.00,,,0.07,Wunderground v.1.15,2014-08-21 09:30:00,
2014-08-21 04:35:00,71.4,69.6,29.92,SSW,211,0.0,1.0,94,0.00,,,0.07,Wunderground v.1.15,2014-08-21 09:35:00,
2014-08-21 04:40:00,71.4,69.6,29.92,SSW,211,1.0,1.0,94,0.00,,,0.07,Wunderground v.1.15,2014-08-21 09:40:00,
2014-08-21 04:45:00,71.4,69.6,29.93,SW,215,1.0,3.0,94,0.00,,,0.07,Wunderground v.1.15,2014-08-21 09:45:00,
2014-08-21 04:50:00,71.1,69.3,29.93,SSW,198,1.0,1.0,94,0.50,,,0.10,Wunderground v.1.15,2014-08-21 09:50:00,
2014-08-21 05:00:00,70.3,68.5,29.93,SSW,208,0.0,0.0,94,0.37,,,0.14,Wunderground v.1.15,2014-08-21 10:00:00,
2014-08-21 05:05:00,70.1,68.3,29.93,SSW,213,1.0,1.0,94,0.24,,,0.16,Wunderground v.1.15,2014-08-21 10:05:00,
2014-08-21 05:20:00,69.7,67.9,29.94,SW,219,0.0,4.0,94,0.87,,,0.26,Wunderground v.1.15,2014-08-21 10:20:00,
2014-08-21 05:30:00,69.6,67.8,29.92,SSW,211,2.0,2.0,94,0.26,,,0.36,Wunderground v.1.15,2014-08-21 10:30:00,
2014-08-21 05:35:00,69.5,68.0,29.92,SSW,211,1.0,2.0,95,0.76,,,0.39,Wunderground v.1.15,2014-08-21 10:35:00,
2014-08-21 05:40:00,69.5,68.0,29.92,SSW,211,0.0,0.0,95,1.07,,,0.48,Wunderground v.1.15,2014-08-21 10:40:00,
2014-08-21 05:45:00,69.4,67.9,29.91,SSW,211,0.0,0.0,95,0.36,,,0.52,Wunderground v.1.15,2014-08-21 10:45:00,
2014-08-21 05:50:00,69.4,67.9,29.92,SSW,211,0.0,0.0,95,0.12,,,0.53,Wunderground v.1.15,2014-08-21 10:50:00,
2014-08-21 06:00:00,69.2,67.7,29.91,SSW,211,0.0,0.0,95,0.04,,,0.53,Wunderground v.1.15,2014-08-21 11:00:00,
2014-08-21 06:05:00,69.1,67.6,29.90,SSW,211,0.0,0.0,95,0.00,,,0.53,Wunderground v.1.15,2014-08-21 11:05:00,
2014-08-21 06:15:00,69.2,67.7,29.90,SSW,211,0.0,2.0,95,0.00,,,0.53,Wunderground v.1.15,2014-08-21 11:15:00,
2014-08-21 06:20:00,69.4,67.9,29.91,SSW,206,1.0,1.0,95,0.00,,,0.54,Wunderground v.1.15,2014-08-21 11:20:00,
2014-08-21 06:25:00,69.4,67.9,29.92,SSW,196,2.0,2.0,95,0.00,,,0.54,Wunderground v.1.15,2014-08-21 11:25:00,
2014-08-21 06:30:00,69.4,67.9,29.92,SSW,196,1.0,1.0,95,0.00,,,0.54,Wunderground v.1.15,2014-08-21 11:30:00,
2014-08-21 06:35:00,69.4,67.9,29.91,SSW,196,0.0,1.0,95,0.00,,,0.54,Wunderground v.1.15,2014-08-21 11:35:00,
2014-08-21 06:45:00,69.6,68.4,29.91,SSW,196,0.0,0.0,96,0.00,,,0.55,Wunderground v.1.15,2014-08-21 11:45:00,
2014-08-21 06:50:00,69.7,68.5,29.92,SSW,196,0.0,0.0,96,0.07,,,0.56,Wunderground v.1.15,2014-08-21 11:50:00,
2014-08-21 06:55:00,69.8,68.6,29.92,SSW,196,0.0,0.0,96,0.06,,,0.56,Wunderground v.1.15,2014-08-21 11:55:00,
2014-08-21 07:00:00,69.9,68.7,29.92,SSW,196,0.0,0.0,96,0.05,,,0.57,Wunderground v.1.15,2014-08-21 12:00:00,
2014-08-21 07:05:00,70.0,68.8,29.92,SSW,196,0.0,0.0,96,0.10,,,0.58,Wunderground v.1.15,2014-08-21 12:05:00,
2014-08-21 07:15:00,70.2,69.0,29.93,SSW,196,0.0,0.0,96,0.06,,,0.59,Wunderground v.1.15,2014-08-21 12:15:00,
2014-08-21 07:20:00,70.3,69.1,29.94,SSW,196,0.0,0.0,96,0.11,,,0.60,Wunderground v.1.15,2014-08-21 12:20:00,
2014-08-21 07:30:00,70.8,69.6,29.96,SSW,198,0.0,0.0,96,0.57,,,0.63,Wunderground v.1.15,2014-08-21 12:30:00,
2014-08-21 07:35:00,71.1,69.9,29.96,SSW,196,0.0,1.0,96,0.51,,,0.68,Wunderground v.1.15,2014-08-21 12:35:00,
2014-08-21 07:40:00,71.0,69.8,29.97,WSW,239,1.0,1.0,96,1.57,,,0.79,Wunderground v.1.15,2014-08-21 12:40:00,
2014-08-21 07:45:00,70.9,69.7,29.96,WSW,238,1.0,2.0,96,1.45,,,0.92,Wunderground v.1.15,2014-08-21 12:45:00,
2014-08-21 07:50:00,70.9,69.7,29.95,SSW,208,1.0,4.0,96,0.55,,,0.98,Wunderground v.1.15,2014-08-21 12:50:00,